sensor_id;sensor_type;location;lat;lon;timestamp;temperature;humidity
40023;DHT22;25713;-35.352;149.036;2022-12-05T00:01:59;20.20;91.00
40023;DHT22;25713;-35.352;149.036;2022-12-05T00:04:29;20.20;90.80
40023;DHT22;25713;-35.352;149.036;2022-12-05T00:06:58;20.20;90.50
40023;DHT22;25713;-35.352;149.036;2022-12-05T00:09:27;20.20;89.20
40023;DHT22;25713;-35.352;149.036;2022-12-05T00:11:59;20.30;90.30
40023;DHT22;25713;-35.352;149.036;2022-12-05T00:14:28;20.30;88.60
40023;DHT22;25713;-35.352;149.036;2022-12-05T00:16:57;20.40;89.70
40023;DHT22;25713;-35.352;149.036;2022-12-05T00:19:27;20.80;85.20
40023;DHT22;25713;-35.352;149.036;2022-12-05T00:21:56;20.80;87.50
40023;DHT22;25713;-35.352;149.036;2022-12-05T00:24:26;20.70;86.50
40023;DHT22;25713;-35.352;149.036;2022-12-05T00:26:57;20.70;87.10
40023;DHT22;25713;-35.352;149.036;2022-12-05T00:29:27;20.80;85.70
40023;DHT22;25713;-35.352;149.036;2022-12-05T00:31:56;21.00;83.30
40023;DHT22;25713;-35.352;149.036;2022-12-05T00:34:26;21.30;83.40
40023;DHT22;25713;-35.352;149.036;2022-12-05T00:36:55;21.10;83.20
40023;DHT22;25713;-35.352;149.036;2022-12-05T00:39:24;21.30;84.40
40023;DHT22;25713;-35.352;149.036;2022-12-05T00:41:54;21.30;83.90
40023;DHT22;25713;-35.352;149.036;2022-12-05T00:44:25;21.50;83.10
40023;DHT22;25713;-35.352;149.036;2022-12-05T00:46:55;21.40;83.70
40023;DHT22;25713;-35.352;149.036;2022-12-05T00:49:24;21.20;84.20
40023;DHT22;25713;-35.352;149.036;2022-12-05T00:51:54;21.30;83.60
40023;DHT22;25713;-35.352;149.036;2022-12-05T00:54:24;21.20;82.90
40023;DHT22;25713;-35.352;149.036;2022-12-05T00:56:53;21.30;82.00
40023;DHT22;25713;-35.352;149.036;2022-12-05T00:59:25;21.20;82.10
40023;DHT22;25713;-35.352;149.036;2022-12-05T01:01:54;21.20;82.50
40023;DHT22;25713;-35.352;149.036;2022-12-05T01:04:25;21.30;82.00
40023;DHT22;25713;-35.352;149.036;2022-12-05T01:06:56;21.20;82.80
40023;DHT22;25713;-35.352;149.036;2022-12-05T01:09:25;21.10;83.40
40023;DHT22;25713;-35.352;149.036;2022-12-05T01:11:55;21.20;82.00
40023;DHT22;25713;-35.352;149.036;2022-12-05T01:14:27;21.00;82.90
40023;DHT22;25713;-35.352;149.036;2022-12-05T01:16:56;20.90;82.70
40023;DHT22;25713;-35.352;149.036;2022-12-05T01:19:28;20.80;83.50
40023;DHT22;25713;-35.352;149.036;2022-12-05T01:21:58;20.80;82.80
40023;DHT22;25713;-35.352;149.036;2022-12-05T01:24:28;20.70;83.10
40023;DHT22;25713;-35.352;149.036;2022-12-05T01:26:58;20.60;86.10
40023;DHT22;25713;-35.352;149.036;2022-12-05T01:29:30;20.60;86.80
40023;DHT22;25713;-35.352;149.036;2022-12-05T01:31:59;20.60;86.40
40023;DHT22;25713;-35.352;149.036;2022-12-05T01:34:29;20.50;86.20
40023;DHT22;25713;-35.352;149.036;2022-12-05T01:36:59;20.60;85.20
40023;DHT22;25713;-35.352;149.036;2022-12-05T01:39:28;20.60;85.70
40023;DHT22;25713;-35.352;149.036;2022-12-05T01:41:58;20.60;87.30
40023;DHT22;25713;-35.352;149.036;2022-12-05T01:45:09;20.50;87.10
40023;DHT22;25713;-35.352;149.036;2022-12-05T01:47:41;20.50;88.00
40023;DHT22;25713;-35.352;149.036;2022-12-05T01:50:13;20.50;87.50
40023;DHT22;25713;-35.352;149.036;2022-12-05T01:52:43;20.50;90.00
40023;DHT22;25713;-35.352;149.036;2022-12-05T01:55:13;20.40;90.00
40023;DHT22;25713;-35.352;149.036;2022-12-05T01:57:45;20.40;89.70
40023;DHT22;25713;-35.352;149.036;2022-12-05T02:00:19;20.50;90.10
40023;DHT22;25713;-35.352;149.036;2022-12-05T02:02:51;20.50;89.50
40023;DHT22;25713;-35.352;149.036;2022-12-05T02:05:23;20.50;90.20
40023;DHT22;25713;-35.352;149.036;2022-12-05T02:07:54;20.60;89.40
40023;DHT22;25713;-35.352;149.036;2022-12-05T02:10:24;20.60;89.10
40023;DHT22;25713;-35.352;149.036;2022-12-05T02:12:53;20.60;89.50
40023;DHT22;25713;-35.352;149.036;2022-12-05T02:15:33;20.70;88.20
40023;DHT22;25713;-35.352;149.036;2022-12-05T02:18:19;20.60;90.00
40023;DHT22;25713;-35.352;149.036;2022-12-05T02:21:05;20.60;89.50
40023;DHT22;25713;-35.352;149.036;2022-12-05T02:24:04;20.60;89.60
40023;DHT22;25713;-35.352;149.036;2022-12-05T02:26:58;20.50;91.10
40023;DHT22;25713;-35.352;149.036;2022-12-05T02:29:50;20.40;91.20
40023;DHT22;25713;-35.352;149.036;2022-12-05T02:32:30;20.60;90.30
40023;DHT22;25713;-35.352;149.036;2022-12-05T02:35:07;20.60;90.40
40023;DHT22;25713;-35.352;149.036;2022-12-05T02:37:43;20.70;89.90
40023;DHT22;25713;-35.352;149.036;2022-12-05T02:40:20;20.70;91.10
40023;DHT22;25713;-35.352;149.036;2022-12-05T02:42:57;20.70;90.60
40023;DHT22;25713;-35.352;149.036;2022-12-05T02:45:32;20.90;89.70
40023;DHT22;25713;-35.352;149.036;2022-12-05T02:48:04;20.80;90.20
40023;DHT22;25713;-35.352;149.036;2022-12-05T02:50:36;20.80;90.50
40023;DHT22;25713;-35.352;149.036;2022-12-05T02:53:09;20.80;90.60
40023;DHT22;25713;-35.352;149.036;2022-12-05T02:55:40;20.70;90.80
40023;DHT22;25713;-35.352;149.036;2022-12-05T02:58:15;20.60;91.00
40023;DHT22;25713;-35.352;149.036;2022-12-05T03:00:49;20.60;91.30
40023;DHT22;25713;-35.352;149.036;2022-12-05T03:03:21;20.70;91.10
40023;DHT22;25713;-35.352;149.036;2022-12-05T03:05:55;20.60;91.40
40023;DHT22;25713;-35.352;149.036;2022-12-05T03:08:30;20.60;92.10
40023;DHT22;25713;-35.352;149.036;2022-12-05T03:11:02;20.50;92.50
40023;DHT22;25713;-35.352;149.036;2022-12-05T03:13:35;20.50;92.90
40023;DHT22;25713;-35.352;149.036;2022-12-05T03:16:14;20.50;93.10
40023;DHT22;25713;-35.352;149.036;2022-12-05T03:18:47;20.40;93.80
40023;DHT22;25713;-35.352;149.036;2022-12-05T03:21:24;20.50;93.70
40023;DHT22;25713;-35.352;149.036;2022-12-05T03:24:02;20.50;94.00
40023;DHT22;25713;-35.352;149.036;2022-12-05T03:26:39;20.60;94.30
40023;DHT22;25713;-35.352;149.036;2022-12-05T03:29:23;20.60;94.20
40023;DHT22;25713;-35.352;149.036;2022-12-05T03:32:01;20.70;94.30
40023;DHT22;25713;-35.352;149.036;2022-12-05T03:34:48;20.90;94.10
40023;DHT22;25713;-35.352;149.036;2022-12-05T03:37:24;20.80;94.60
40023;DHT22;25713;-35.352;149.036;2022-12-05T03:40:05;20.70;94.70
40023;DHT22;25713;-35.352;149.036;2022-12-05T03:42:40;20.60;94.70
40023;DHT22;25713;-35.352;149.036;2022-12-05T03:45:14;20.70;95.00
40023;DHT22;25713;-35.352;149.036;2022-12-05T03:47:50;20.70;95.30
40023;DHT22;25713;-35.352;149.036;2022-12-05T03:50:22;21.00;95.70
40023;DHT22;25713;-35.352;149.036;2022-12-05T03:52:56;20.90;95.00
40023;DHT22;25713;-35.352;149.036;2022-12-05T03:55:28;20.80;95.80
40023;DHT22;25713;-35.352;149.036;2022-12-05T03:58:01;21.00;95.10
40023;DHT22;25713;-35.352;149.036;2022-12-05T04:00:36;21.10;94.90
40023;DHT22;25713;-35.352;149.036;2022-12-05T04:03:12;21.20;92.20
40023;DHT22;25713;-35.352;149.036;2022-12-05T04:05:45;21.30;92.60
40023;DHT22;25713;-35.352;149.036;2022-12-05T04:08:20;21.50;89.70
40023;DHT22;25713;-35.352;149.036;2022-12-05T04:10:54;21.40;88.90
40023;DHT22;25713;-35.352;149.036;2022-12-05T04:13:28;21.60;87.50
40023;DHT22;25713;-35.352;149.036;2022-12-05T04:16:02;21.70;87.20
40023;DHT22;25713;-35.352;149.036;2022-12-05T04:18:37;21.90;84.70
40023;DHT22;25713;-35.352;149.036;2022-12-05T04:21:09;22.20;83.80
40023;DHT22;25713;-35.352;149.036;2022-12-05T04:23:39;22.20;82.40
40023;DHT22;25713;-35.352;149.036;2022-12-05T04:26:15;22.10;84.60
40023;DHT22;25713;-35.352;149.036;2022-12-05T04:28:53;22.10;83.50
40023;DHT22;25713;-35.352;149.036;2022-12-05T04:31:26;22.10;85.60
40023;DHT22;25713;-35.352;149.036;2022-12-05T04:34:03;22.10;82.30
40023;DHT22;25713;-35.352;149.036;2022-12-05T04:36:35;22.10;83.80
40023;DHT22;25713;-35.352;149.036;2022-12-05T04:39:08;22.10;83.10
40023;DHT22;25713;-35.352;149.036;2022-12-05T04:41:40;22.00;84.80
40023;DHT22;25713;-35.352;149.036;2022-12-05T04:44:13;22.10;83.90
40023;DHT22;25713;-35.352;149.036;2022-12-05T04:46:45;22.00;83.10
40023;DHT22;25713;-35.352;149.036;2022-12-05T04:49:20;22.00;81.30
40023;DHT22;25713;-35.352;149.036;2022-12-05T04:51:51;22.00;83.50
40023;DHT22;25713;-35.352;149.036;2022-12-05T04:54:25;21.90;82.70
40023;DHT22;25713;-35.352;149.036;2022-12-05T04:56:59;21.90;83.30
40023;DHT22;25713;-35.352;149.036;2022-12-05T04:59:31;22.10;82.90
40023;DHT22;25713;-35.352;149.036;2022-12-05T05:02:03;22.30;80.10
40023;DHT22;25713;-35.352;149.036;2022-12-05T05:04:38;22.50;78.80
40023;DHT22;25713;-35.352;149.036;2022-12-05T05:07:11;22.40;77.50
40023;DHT22;25713;-35.352;149.036;2022-12-05T05:09:41;22.40;79.10
40023;DHT22;25713;-35.352;149.036;2022-12-05T05:12:12;22.30;76.10
40023;DHT22;25713;-35.352;149.036;2022-12-05T05:14:41;22.30;77.60
40023;DHT22;25713;-35.352;149.036;2022-12-05T05:17:11;22.10;74.20
40023;DHT22;25713;-35.352;149.036;2022-12-05T05:19:42;22.10;72.70
40023;DHT22;25713;-35.352;149.036;2022-12-05T05:22:12;22.10;68.40
40023;DHT22;25713;-35.352;149.036;2022-12-05T05:24:41;22.00;65.80
40023;DHT22;25713;-35.352;149.036;2022-12-05T05:27:10;22.10;66.90
40023;DHT22;25713;-35.352;149.036;2022-12-05T05:29:40;22.00;68.30
40023;DHT22;25713;-35.352;149.036;2022-12-05T05:32:09;21.90;66.80
40023;DHT22;25713;-35.352;149.036;2022-12-05T05:34:41;21.90;64.80
40023;DHT22;25713;-35.352;149.036;2022-12-05T05:37:10;21.80;65.50
40023;DHT22;25713;-35.352;149.036;2022-12-05T05:39:40;21.80;68.10
40023;DHT22;25713;-35.352;149.036;2022-12-05T05:42:12;21.70;65.90
40023;DHT22;25713;-35.352;149.036;2022-12-05T05:44:41;21.60;63.70
40023;DHT22;25713;-35.352;149.036;2022-12-05T05:47:11;21.60;65.10
40023;DHT22;25713;-35.352;149.036;2022-12-05T05:49:42;21.60;65.70
40023;DHT22;25713;-35.352;149.036;2022-12-05T05:52:12;21.50;66.40
40023;DHT22;25713;-35.352;149.036;2022-12-05T05:54:42;21.40;68.30
40023;DHT22;25713;-35.352;149.036;2022-12-05T05:57:11;21.40;68.90
40023;DHT22;25713;-35.352;149.036;2022-12-05T05:59:41;21.30;67.00
40023;DHT22;25713;-35.352;149.036;2022-12-05T06:02:10;21.30;67.70
40023;DHT22;25713;-35.352;149.036;2022-12-05T06:04:41;21.30;68.30
40023;DHT22;25713;-35.352;149.036;2022-12-05T06:07:11;21.20;68.20
40023;DHT22;25713;-35.352;149.036;2022-12-05T06:09:41;21.20;68.80
40023;DHT22;25713;-35.352;149.036;2022-12-05T06:12:10;21.30;68.00
40023;DHT22;25713;-35.352;149.036;2022-12-05T06:14:40;21.20;71.00
40023;DHT22;25713;-35.352;149.036;2022-12-05T06:17:09;21.20;69.00
40023;DHT22;25713;-35.352;149.036;2022-12-05T06:19:39;21.20;68.90
40023;DHT22;25713;-35.352;149.036;2022-12-05T06:22:10;21.20;70.10
40023;DHT22;25713;-35.352;149.036;2022-12-05T06:24:40;21.10;71.50
40023;DHT22;25713;-35.352;149.036;2022-12-05T06:27:13;21.00;71.10
40023;DHT22;25713;-35.352;149.036;2022-12-05T06:29:42;21.00;70.40
40023;DHT22;25713;-35.352;149.036;2022-12-05T06:32:12;21.00;70.70
40023;DHT22;25713;-35.352;149.036;2022-12-05T06:34:42;21.00;70.60
40023;DHT22;25713;-35.352;149.036;2022-12-05T06:37:13;21.00;72.10
40023;DHT22;25713;-35.352;149.036;2022-12-05T06:39:43;20.90;71.70
40023;DHT22;25713;-35.352;149.036;2022-12-05T06:42:13;20.90;71.40
40023;DHT22;25713;-35.352;149.036;2022-12-05T06:44:42;20.80;71.30
40023;DHT22;25713;-35.352;149.036;2022-12-05T06:47:11;20.80;71.90
40023;DHT22;25713;-35.352;149.036;2022-12-05T06:49:41;20.70;73.70
40023;DHT22;25713;-35.352;149.036;2022-12-05T06:52:12;20.60;76.20
40023;DHT22;25713;-35.352;149.036;2022-12-05T06:54:42;20.60;75.20
40023;DHT22;25713;-35.352;149.036;2022-12-05T06:57:12;20.50;75.90
40023;DHT22;25713;-35.352;149.036;2022-12-05T06:59:41;20.40;74.60
40023;DHT22;25713;-35.352;149.036;2022-12-05T07:02:12;20.40;74.50
40023;DHT22;25713;-35.352;149.036;2022-12-05T07:04:42;20.40;75.00
40023;DHT22;25713;-35.352;149.036;2022-12-05T07:07:13;20.40;73.80
40023;DHT22;25713;-35.352;149.036;2022-12-05T07:09:43;20.40;73.10
40023;DHT22;25713;-35.352;149.036;2022-12-05T07:12:13;20.40;73.50
40023;DHT22;25713;-35.352;149.036;2022-12-05T07:14:47;20.40;73.50
40023;DHT22;25713;-35.352;149.036;2022-12-05T07:17:17;20.40;74.00
40023;DHT22;25713;-35.352;149.036;2022-12-05T07:19:48;20.40;76.80
40023;DHT22;25713;-35.352;149.036;2022-12-05T07:22:21;20.30;76.60
40023;DHT22;25713;-35.352;149.036;2022-12-05T07:24:52;20.30;74.20
40023;DHT22;25713;-35.352;149.036;2022-12-05T07:27:22;20.30;74.00
40023;DHT22;25713;-35.352;149.036;2022-12-05T07:29:52;20.30;72.80
40023;DHT22;25713;-35.352;149.036;2022-12-05T07:32:21;20.30;74.60
40023;DHT22;25713;-35.352;149.036;2022-12-05T07:34:51;20.30;77.00
40023;DHT22;25713;-35.352;149.036;2022-12-05T07:37:22;20.20;76.00
40023;DHT22;25713;-35.352;149.036;2022-12-05T07:39:52;20.20;75.40
40023;DHT22;25713;-35.352;149.036;2022-12-05T07:42:22;20.20;78.40
40023;DHT22;25713;-35.352;149.036;2022-12-05T07:44:51;20.10;77.10
40023;DHT22;25713;-35.352;149.036;2022-12-05T07:47:20;20.10;78.30
40023;DHT22;25713;-35.352;149.036;2022-12-05T07:49:50;20.10;79.50
40023;DHT22;25713;-35.352;149.036;2022-12-05T07:52:21;20.10;81.60
40023;DHT22;25713;-35.352;149.036;2022-12-05T07:54:51;20.10;79.00
40023;DHT22;25713;-35.352;149.036;2022-12-05T07:57:20;20.10;78.00
40023;DHT22;25713;-35.352;149.036;2022-12-05T07:59:50;20.00;75.80
40023;DHT22;25713;-35.352;149.036;2022-12-05T08:02:20;20.10;77.70
40023;DHT22;25713;-35.352;149.036;2022-12-05T08:04:49;20.00;78.50
40023;DHT22;25713;-35.352;149.036;2022-12-05T08:07:23;20.10;81.90
40023;DHT22;25713;-35.352;149.036;2022-12-05T08:09:53;20.10;83.60
40023;DHT22;25713;-35.352;149.036;2022-12-05T08:12:22;20.10;82.60
40023;DHT22;25713;-35.352;149.036;2022-12-05T08:14:52;20.10;84.20
40023;DHT22;25713;-35.352;149.036;2022-12-05T08:17:21;20.10;83.00
40023;DHT22;25713;-35.352;149.036;2022-12-05T08:19:51;20.00;82.50
40023;DHT22;25713;-35.352;149.036;2022-12-05T08:22:22;20.00;82.80
40023;DHT22;25713;-35.352;149.036;2022-12-05T08:24:52;20.00;81.20
40023;DHT22;25713;-35.352;149.036;2022-12-05T08:27:27;20.00;82.10
40023;DHT22;25713;-35.352;149.036;2022-12-05T08:29:57;20.00;83.30
40023;DHT22;25713;-35.352;149.036;2022-12-05T08:32:27;20.00;84.70
40023;DHT22;25713;-35.352;149.036;2022-12-05T08:34:57;20.00;84.60
40023;DHT22;25713;-35.352;149.036;2022-12-05T08:37:33;20.00;84.20
40023;DHT22;25713;-35.352;149.036;2022-12-05T08:40:02;19.90;83.80
40023;DHT22;25713;-35.352;149.036;2022-12-05T08:42:32;19.90;81.30
40023;DHT22;25713;-35.352;149.036;2022-12-05T08:45:02;19.90;82.40
40023;DHT22;25713;-35.352;149.036;2022-12-05T08:47:31;19.80;78.80
40023;DHT22;25713;-35.352;149.036;2022-12-05T08:50:01;19.80;77.90
40023;DHT22;25713;-35.352;149.036;2022-12-05T08:52:32;19.80;82.80
40023;DHT22;25713;-35.352;149.036;2022-12-05T08:55:02;19.80;83.50
40023;DHT22;25713;-35.352;149.036;2022-12-05T08:57:33;19.80;82.80
40023;DHT22;25713;-35.352;149.036;2022-12-05T09:00:03;19.80;84.00
40023;DHT22;25713;-35.352;149.036;2022-12-05T09:02:32;19.80;83.20
40023;DHT22;25713;-35.352;149.036;2022-12-05T09:05:01;19.80;81.80
40023;DHT22;25713;-35.352;149.036;2022-12-05T09:07:33;19.80;82.90
40023;DHT22;25713;-35.352;149.036;2022-12-05T09:10:03;19.80;83.80
40023;DHT22;25713;-35.352;149.036;2022-12-05T09:12:35;19.80;84.20
40023;DHT22;25713;-35.352;149.036;2022-12-05T09:15:07;19.80;83.90
40023;DHT22;25713;-35.352;149.036;2022-12-05T09:17:37;19.80;85.10
40023;DHT22;25713;-35.352;149.036;2022-12-05T09:20:07;19.80;84.70
40023;DHT22;25713;-35.352;149.036;2022-12-05T09:22:39;19.70;86.60
40023;DHT22;25713;-35.352;149.036;2022-12-05T09:25:09;19.70;87.30
40023;DHT22;25713;-35.352;149.036;2022-12-05T09:27:39;19.70;84.00
40023;DHT22;25713;-35.352;149.036;2022-12-05T09:30:09;19.70;83.20
40023;DHT22;25713;-35.352;149.036;2022-12-05T09:32:39;19.60;85.40
40023;DHT22;25713;-35.352;149.036;2022-12-05T09:35:09;19.60;83.40
40023;DHT22;25713;-35.352;149.036;2022-12-05T09:37:40;19.60;85.30
40023;DHT22;25713;-35.352;149.036;2022-12-05T09:40:15;19.60;87.80
40023;DHT22;25713;-35.352;149.036;2022-12-05T09:42:56;19.60;86.20
40023;DHT22;25713;-35.352;149.036;2022-12-05T09:45:31;19.50;85.10
40023;DHT22;25713;-35.352;149.036;2022-12-05T09:48:09;19.60;87.90
40023;DHT22;25713;-35.352;149.036;2022-12-05T09:50:43;19.50;87.20
40023;DHT22;25713;-35.352;149.036;2022-12-05T09:53:21;19.50;86.60
40023;DHT22;25713;-35.352;149.036;2022-12-05T09:55:54;19.50;87.20
40023;DHT22;25713;-35.352;149.036;2022-12-05T09:58:33;19.50;86.40
40023;DHT22;25713;-35.352;149.036;2022-12-05T10:01:25;19.40;86.10
40023;DHT22;25713;-35.352;149.036;2022-12-05T10:04:06;19.40;86.60
40023;DHT22;25713;-35.352;149.036;2022-12-05T10:06:42;19.30;86.60
40023;DHT22;25713;-35.352;149.036;2022-12-05T10:09:28;19.30;86.80
40023;DHT22;25713;-35.352;149.036;2022-12-05T10:12:09;19.30;87.80
40023;DHT22;25713;-35.352;149.036;2022-12-05T10:14:45;19.30;88.60
40023;DHT22;25713;-35.352;149.036;2022-12-05T10:17:23;19.40;90.00
40023;DHT22;25713;-35.352;149.036;2022-12-05T10:19:57;19.40;89.40
40023;DHT22;25713;-35.352;149.036;2022-12-05T10:22:32;19.40;90.20
40023;DHT22;25713;-35.352;149.036;2022-12-05T10:25:05;19.40;90.50
40023;DHT22;25713;-35.352;149.036;2022-12-05T10:27:37;19.40;90.60
40023;DHT22;25713;-35.352;149.036;2022-12-05T10:30:13;19.40;90.90
40023;DHT22;25713;-35.352;149.036;2022-12-05T10:32:51;19.40;91.10
40023;DHT22;25713;-35.352;149.036;2022-12-05T10:35:22;19.40;91.10
40023;DHT22;25713;-35.352;149.036;2022-12-05T10:37:53;19.40;91.30
40023;DHT22;25713;-35.352;149.036;2022-12-05T10:40:29;19.40;91.50
40023;DHT22;25713;-35.352;149.036;2022-12-05T10:43:01;19.40;91.60
40023;DHT22;25713;-35.352;149.036;2022-12-05T10:45:32;19.40;91.30
40023;DHT22;25713;-35.352;149.036;2022-12-05T10:48:04;19.40;91.30
40023;DHT22;25713;-35.352;149.036;2022-12-05T10:50:37;19.30;91.50
40023;DHT22;25713;-35.352;149.036;2022-12-05T10:53:11;19.20;91.30
40023;DHT22;25713;-35.352;149.036;2022-12-05T10:55:46;19.20;91.40
40023;DHT22;25713;-35.352;149.036;2022-12-05T10:58:17;19.20;91.10
40023;DHT22;25713;-35.352;149.036;2022-12-05T11:00:48;19.20;91.70
40023;DHT22;25713;-35.352;149.036;2022-12-05T11:03:27;19.20;91.90
40023;DHT22;25713;-35.352;149.036;2022-12-05T11:06:01;19.20;91.90
40023;DHT22;25713;-35.352;149.036;2022-12-05T11:08:32;19.30;92.00
40023;DHT22;25713;-35.352;149.036;2022-12-05T11:11:18;19.20;92.10
40023;DHT22;25713;-35.352;149.036;2022-12-05T11:13:54;19.20;90.30
40023;DHT22;25713;-35.352;149.036;2022-12-05T11:16:25;19.10;91.20
40023;DHT22;25713;-35.352;149.036;2022-12-05T11:18:55;19.00;90.90
40023;DHT22;25713;-35.352;149.036;2022-12-05T11:21:24;19.00;91.10
40023;DHT22;25713;-35.352;149.036;2022-12-05T11:23:54;18.80;90.70
40023;DHT22;25713;-35.352;149.036;2022-12-05T11:26:37;18.80;91.10
40023;DHT22;25713;-35.352;149.036;2022-12-05T11:29:33;18.80;91.00
40023;DHT22;25713;-35.352;149.036;2022-12-05T11:32:04;18.80;90.30
40023;DHT22;25713;-35.352;149.036;2022-12-05T11:34:38;18.80;90.40
40023;DHT22;25713;-35.352;149.036;2022-12-05T11:37:13;18.70;90.70
40023;DHT22;25713;-35.352;149.036;2022-12-05T11:39:44;18.70;90.40
40023;DHT22;25713;-35.352;149.036;2022-12-05T11:42:29;18.60;90.80
40023;DHT22;25713;-35.352;149.036;2022-12-05T11:45:26;18.60;90.20
40023;DHT22;25713;-35.352;149.036;2022-12-05T11:48:15;18.60;91.40
40023;DHT22;25713;-35.352;149.036;2022-12-05T11:50:56;18.60;90.70
40023;DHT22;25713;-35.352;149.036;2022-12-05T11:53:39;18.60;90.60
40023;DHT22;25713;-35.352;149.036;2022-12-05T11:56:27;18.60;90.30
40023;DHT22;25713;-35.352;149.036;2022-12-05T11:59:23;18.60;91.50
40023;DHT22;25713;-35.352;149.036;2022-12-05T12:02:11;18.60;90.60
40023;DHT22;25713;-35.352;149.036;2022-12-05T12:04:52;18.60;91.50
40023;DHT22;25713;-35.352;149.036;2022-12-05T12:07:45;18.60;91.90
40023;DHT22;25713;-35.352;149.036;2022-12-05T12:10:22;18.60;92.00
40023;DHT22;25713;-35.352;149.036;2022-12-05T12:13:07;18.60;91.70
40023;DHT22;25713;-35.352;149.036;2022-12-05T12:16:02;18.70;92.10
40023;DHT22;25713;-35.352;149.036;2022-12-05T12:18:47;18.70;92.20
40023;DHT22;25713;-35.352;149.036;2022-12-05T12:21:21;18.70;92.10
40023;DHT22;25713;-35.352;149.036;2022-12-05T12:24:04;18.70;91.40
40023;DHT22;25713;-35.352;149.036;2022-12-05T12:26:42;18.70;92.20
40023;DHT22;25713;-35.352;149.036;2022-12-05T12:29:22;18.70;91.80
40023;DHT22;25713;-35.352;149.036;2022-12-05T12:32:07;18.70;92.10
40023;DHT22;25713;-35.352;149.036;2022-12-05T12:35:02;18.70;91.80
40023;DHT22;25713;-35.352;149.036;2022-12-05T12:37:42;18.70;92.00
40023;DHT22;25713;-35.352;149.036;2022-12-05T12:40:19;18.70;91.70
40023;DHT22;25713;-35.352;149.036;2022-12-05T12:43:00;18.60;91.40
40023;DHT22;25713;-35.352;149.036;2022-12-05T12:46:01;18.60;91.30
40023;DHT22;25713;-35.352;149.036;2022-12-05T12:48:53;18.50;91.50
40023;DHT22;25713;-35.352;149.036;2022-12-05T12:51:29;18.40;91.60
40023;DHT22;25713;-35.352;149.036;2022-12-05T12:54:16;18.50;91.20
40023;DHT22;25713;-35.352;149.036;2022-12-05T12:56:53;18.30;91.00
40023;DHT22;25713;-35.352;149.036;2022-12-05T12:59:44;18.30;91.00
40023;DHT22;25713;-35.352;149.036;2022-12-05T13:02:19;18.40;90.80
40023;DHT22;25713;-35.352;149.036;2022-12-05T13:04:59;18.30;90.70
40023;DHT22;25713;-35.352;149.036;2022-12-05T13:07:34;18.30;90.60
40023;DHT22;25713;-35.352;149.036;2022-12-05T13:10:11;18.30;91.00
40023;DHT22;25713;-35.352;149.036;2022-12-05T13:12:43;18.30;90.80
40023;DHT22;25713;-35.352;149.036;2022-12-05T13:15:15;18.30;90.90
40023;DHT22;25713;-35.352;149.036;2022-12-05T13:17:47;18.30;90.90
40023;DHT22;25713;-35.352;149.036;2022-12-05T13:20:22;18.40;90.70
40023;DHT22;25713;-35.352;149.036;2022-12-05T13:22:55;18.40;89.90
40023;DHT22;25713;-35.352;149.036;2022-12-05T13:25:28;18.30;90.50
40023;DHT22;25713;-35.352;149.036;2022-12-05T13:28:02;18.30;90.30
40023;DHT22;25713;-35.352;149.036;2022-12-05T13:30:33;18.40;90.60
40023;DHT22;25713;-35.352;149.036;2022-12-05T13:33:06;18.30;90.50
40023;DHT22;25713;-35.352;149.036;2022-12-05T13:35:40;18.40;90.60
40023;DHT22;25713;-35.352;149.036;2022-12-05T13:38:20;18.30;90.20
40023;DHT22;25713;-35.352;149.036;2022-12-05T13:40:51;18.30;90.30
40023;DHT22;25713;-35.352;149.036;2022-12-05T13:43:23;18.30;90.20
40023;DHT22;25713;-35.352;149.036;2022-12-05T13:46:04;18.30;89.80
40023;DHT22;25713;-35.352;149.036;2022-12-05T13:48:36;18.30;89.10
40023;DHT22;25713;-35.352;149.036;2022-12-05T13:51:11;18.20;90.00
40023;DHT22;25713;-35.352;149.036;2022-12-05T13:53:43;18.30;90.00
40023;DHT22;25713;-35.352;149.036;2022-12-05T13:56:28;18.20;90.10
40023;DHT22;25713;-35.352;149.036;2022-12-05T13:59:13;18.30;90.00
40023;DHT22;25713;-35.352;149.036;2022-12-05T14:05:37;18.20;89.50
40023;DHT22;25713;-35.352;149.036;2022-12-05T14:11:19;18.20;89.60
40023;DHT22;25713;-35.352;149.036;2022-12-05T14:13:49;18.20;89.80
40023;DHT22;25713;-35.352;149.036;2022-12-05T14:16:45;18.10;89.30
40023;DHT22;25713;-35.352;149.036;2022-12-05T14:22:46;18.10;88.80
40023;DHT22;25713;-35.352;149.036;2022-12-05T14:25:36;18.10;89.30
40023;DHT22;25713;-35.352;149.036;2022-12-05T14:28:24;18.10;89.90
40023;DHT22;25713;-35.352;149.036;2022-12-05T14:31:13;18.10;89.80
40023;DHT22;25713;-35.352;149.036;2022-12-05T14:33:45;18.10;89.70
40023;DHT22;25713;-35.352;149.036;2022-12-05T14:36:24;18.10;89.00
40023;DHT22;25713;-35.352;149.036;2022-12-05T14:38:54;18.00;89.20
40023;DHT22;25713;-35.352;149.036;2022-12-05T14:41:29;18.00;89.60
40023;DHT22;25713;-35.352;149.036;2022-12-05T14:44:03;17.90;89.80
40023;DHT22;25713;-35.352;149.036;2022-12-05T14:46:44;17.90;89.50
40023;DHT22;25713;-35.352;149.036;2022-12-05T14:49:56;17.90;89.40
40023;DHT22;25713;-35.352;149.036;2022-12-05T15:53:36;17.50;90.00
40023;DHT22;25713;-35.352;149.036;2022-12-05T15:56:12;17.40;90.10
40023;DHT22;25713;-35.352;149.036;2022-12-05T15:58:45;17.50;90.00
40023;DHT22;25713;-35.352;149.036;2022-12-05T16:01:17;17.40;89.50
40023;DHT22;25713;-35.352;149.036;2022-12-05T16:03:48;17.50;90.10
40023;DHT22;25713;-35.352;149.036;2022-12-05T16:06:21;17.40;90.00
40023;DHT22;25713;-35.352;149.036;2022-12-05T16:08:57;17.50;89.60
40023;DHT22;25713;-35.352;149.036;2022-12-05T16:11:28;17.50;89.70
40023;DHT22;25713;-35.352;149.036;2022-12-05T16:14:00;17.50;89.50
40023;DHT22;25713;-35.352;149.036;2022-12-05T16:16:32;17.50;89.30
40023;DHT22;25713;-35.352;149.036;2022-12-05T16:19:03;17.60;89.10
40023;DHT22;25713;-35.352;149.036;2022-12-05T16:21:33;17.50;89.50
40023;DHT22;25713;-35.352;149.036;2022-12-05T16:24:12;17.50;88.60
40023;DHT22;25713;-35.352;149.036;2022-12-05T16:26:49;17.60;88.60
40023;DHT22;25713;-35.352;149.036;2022-12-05T16:29:26;17.60;88.00
40023;DHT22;25713;-35.352;149.036;2022-12-05T16:31:57;17.50;88.90
40023;DHT22;25713;-35.352;149.036;2022-12-05T16:34:28;17.50;89.70
40023;DHT22;25713;-35.352;149.036;2022-12-05T16:36:58;17.60;89.00
40023;DHT22;25713;-35.352;149.036;2022-12-05T16:39:31;17.60;89.00
40023;DHT22;25713;-35.352;149.036;2022-12-05T16:42:00;17.60;88.90